sensor_id;sensor_type;location;lat;lon;timestamp;pressure;altitude;pressure_sealevel;temperature;humidity
59240;BME280;45010;53.640;10.578;2023-06-14T00:02:09;101264.22;;;27.93;33.01
59240;BME280;45010;53.640;10.578;2023-06-14T00:05:09;101261.78;;;27.91;33.38
59240;BME280;45010;53.640;10.578;2023-06-14T00:08:13;101259.22;;;27.85;33.00
59240;BME280;45010;53.640;10.578;2023-06-14T00:11:13;101264.13;;;27.88;32.96
59240;BME280;45010;53.640;10.578;2023-06-14T00:14:14;101268.91;;;27.86;33.00
59240;BME280;45010;53.640;10.578;2023-06-14T00:17:14;101272.63;;;27.85;32.88
59240;BME280;45010;53.640;10.578;2023-06-14T00:20:17;101272.63;;;27.85;32.73
59240;BME280;45010;53.640;10.578;2023-06-14T00:23:17;101261.25;;;27.77;33.09
59240;BME280;45010;53.640;10.578;2023-06-14T00:26:18;101285.47;;;27.83;33.06
59240;BME280;45010;53.640;10.578;2023-06-14T00:29:18;101282.22;;;27.81;32.64
59240;BME280;45010;53.640;10.578;2023-06-14T00:32:18;101284.31;;;27.78;32.85
59240;BME280;45010;53.640;10.578;2023-06-14T00:35:19;101274.09;;;27.75;32.93
59240;BME280;45010;53.640;10.578;2023-06-14T00:38:20;101273.44;;;27.68;32.80
59240;BME280;45010;53.640;10.578;2023-06-14T00:41:21;101283.97;;;27.75;32.90
59240;BME280;45010;53.640;10.578;2023-06-14T00:44:21;101288.56;;;27.74;32.84
59240;BME280;45010;53.640;10.578;2023-06-14T00:47:22;101288.78;;;27.73;32.99
59240;BME280;45010;53.640;10.578;2023-06-14T00:50:23;101287.38;;;27.70;32.98
59240;BME280;45010;53.640;10.578;2023-06-14T00:53:23;101285.78;;;27.69;32.53
59240;BME280;45010;53.640;10.578;2023-06-14T00:56:25;101293.22;;;27.67;32.50
59240;BME280;45010;53.640;10.578;2023-06-14T00:59:26;101292.66;;;27.65;32.42
59240;BME280;45010;53.640;10.578;2023-06-14T01:02:26;101297.44;;;27.63;32.41
59240;BME280;45010;53.640;10.578;2023-06-14T01:05:26;101290.47;;;27.62;32.78
59240;BME280;45010;53.640;10.578;2023-06-14T01:08:49;101290.47;;;27.62;32.80
59240;BME280;45010;53.640;10.578;2023-06-14T01:12:09;101290.91;;;27.59;32.75
59240;BME280;45010;53.640;10.578;2023-06-14T01:15:12;101293.47;;;27.53;32.87
59240;BME280;45010;53.640;10.578;2023-06-14T01:18:13;101290.22;;;27.51;32.54
59240;BME280;45010;53.640;10.578;2023-06-14T01:21:23;101301.28;;;27.55;32.88
59240;BME280;45010;53.640;10.578;2023-06-14T01:24:24;101305.00;;;27.54;32.65
59240;BME280;45010;53.640;10.578;2023-06-14T01:27:25;101305.22;;;27.52;32.61
59240;BME280;45010;53.640;10.578;2023-06-14T01:30:32;101299.78;;;27.47;32.86
59240;BME280;45010;53.640;10.578;2023-06-14T01:33:34;101307.34;;;27.50;32.94
59240;BME280;45010;53.640;10.578;2023-06-14T01:36:36;101307.00;;;27.47;32.86
59240;BME280;45010;53.640;10.578;2023-06-14T01:39:39;101310.47;;;27.47;32.48
59240;BME280;45010;53.640;10.578;2023-06-14T01:42:41;101293.75;;;27.40;32.80
59240;BME280;45010;53.640;10.578;2023-06-14T01:45:42;101310.97;;;27.44;32.46
59240;BME280;45010;53.640;10.578;2023-06-14T01:48:43;101310.97;;;27.44;32.71
59240;BME280;45010;53.640;10.578;2023-06-14T01:51:43;101286.53;;;27.29;32.83
59240;BME280;45010;53.640;10.578;2023-06-14T01:54:43;101306.06;;;27.41;32.66
59240;BME280;45010;53.640;10.578;2023-06-14T01:57:44;101304.44;;;27.40;33.11
59240;BME280;45010;53.640;10.578;2023-06-14T02:00:44;101306.56;;;27.38;32.94
59240;BME280;45010;53.640;10.578;2023-06-14T02:03:45;101314.81;;;27.36;33.13
59240;BME280;45010;53.640;10.578;2023-06-14T02:06:46;101314.00;;;27.36;32.80
59240;BME280;45010;53.640;10.578;2023-06-14T02:09:46;101312.38;;;27.35;32.61
59240;BME280;45010;53.640;10.578;2023-06-14T02:12:47;101295.41;;;27.17;33.03
59240;BME280;45010;53.640;10.578;2023-06-14T02:15:48;101322.53;;;27.33;32.65
59240;BME280;45010;53.640;10.578;2023-06-14T02:18:51;101311.22;;;27.31;32.73
59240;BME280;45010;53.640;10.578;2023-06-14T02:21:51;101321.91;;;27.31;32.77
59240;BME280;45010;53.640;10.578;2023-06-14T02:24:51;101314.94;;;27.30;32.73
59240;BME280;45010;53.640;10.578;2023-06-14T02:27:52;101318.66;;;27.29;33.11
59240;BME280;45010;53.640;10.578;2023-06-14T02:30:52;101319.72;;;27.28;32.75
59240;BME280;45010;53.640;10.578;2023-06-14T02:33:53;101257.09;;;26.81;32.76
59240;BME280;45010;53.640;10.578;2023-06-14T02:36:53;101318.34;;;27.25;32.90
59240;BME280;45010;53.640;10.578;2023-06-14T02:39:53;101315.09;;;27.23;32.92
59240;BME280;45010;53.640;10.578;2023-06-14T02:42:54;101318.44;;;27.18;32.89
59240;BME280;45010;53.640;10.578;2023-06-14T02:45:54;101322.53;;;27.21;32.84
59240;BME280;45010;53.640;10.578;2023-06-14T02:48:54;101320.06;;;27.19;32.79
59240;BME280;45010;53.640;10.578;2023-06-14T02:51:55;101325.41;;;27.19;33.11
59240;BME280;45010;53.640;10.578;2023-06-14T02:54:55;101325.41;;;27.19;32.74
59240;BME280;45010;53.640;10.578;2023-06-14T02:57:56;101320.56;;;27.16;32.86
59240;BME280;45010;53.640;10.578;2023-06-14T03:00:56;101331.25;;;27.16;32.74
59240;BME280;45010;53.640;10.578;2023-06-14T03:03:56;101325.06;;;27.16;33.10
59240;BME280;45010;53.640;10.578;2023-06-14T03:06:57;101327.19;;;27.13;32.81
59240;BME280;45010;53.640;10.578;2023-06-14T03:09:57;101331.72;;;27.13;33.17
59240;BME280;45010;53.640;10.578;2023-06-14T03:12:58;101331.72;;;27.13;32.87
59240;BME280;45010;53.640;10.578;2023-06-14T03:15:58;101324.03;;;27.05;33.36
59240;BME280;45010;53.640;10.578;2023-06-14T03:18:58;101324.88;;;27.05;32.99
59240;BME280;45010;53.640;10.578;2023-06-14T03:21:59;101337.56;;;27.10;32.92
59240;BME280;45010;53.640;10.578;2023-06-14T03:24:59;101318.13;;;27.03;33.11
59240;BME280;45010;53.640;10.578;2023-06-14T03:28:00;101335.31;;;27.07;33.10
59240;BME280;45010;53.640;10.578;2023-06-14T03:31:00;101349.53;;;27.07;33.37
59240;BME280;45010;53.640;10.578;2023-06-14T03:34:01;101355.13;;;27.06;33.16
59240;BME280;45010;53.640;10.578;2023-06-14T03:37:02;101357.81;;;27.06;33.50
59240;BME280;45010;53.640;10.578;2023-06-14T03:40:02;101346.41;;;26.98;33.07
59240;BME280;45010;53.640;10.578;2023-06-14T03:43:06;101359.91;;;27.04;33.32
59240;BME280;45010;53.640;10.578;2023-06-14T03:46:06;101355.34;;;27.04;33.41
59240;BME280;45010;53.640;10.578;2023-06-14T03:49:06;101358.28;;;27.03;33.13
59240;BME280;45010;53.640;10.578;2023-06-14T03:52:07;101360.34;;;27.01;33.17
59240;BME280;45010;53.640;10.578;2023-06-14T03:55:08;101365.69;;;27.01;33.01
59240;BME280;45010;53.640;10.578;2023-06-14T03:58:08;101370.25;;;27.00;33.33
59240;BME280;45010;53.640;10.578;2023-06-14T04:01:09;101367.81;;;26.98;33.60
59240;BME280;45010;53.640;10.578;2023-06-14T04:04:09;101374.00;;;26.99;33.60
59240;BME280;45010;53.640;10.578;2023-06-14T04:07:13;101372.34;;;26.98;33.27
59240;BME280;45010;53.640;10.578;2023-06-14T04:10:13;101368.75;;;26.92;33.67
59240;BME280;45010;53.640;10.578;2023-06-14T04:13:14;101376.06;;;26.97;33.73
59240;BME280;45010;53.640;10.578;2023-06-14T04:16:14;101375.28;;;26.96;33.90
59240;BME280;45010;53.640;10.578;2023-06-14T04:19:15;101382.47;;;26.96;33.51
59240;BME280;45010;53.640;10.578;2023-06-14T04:22:16;101379.00;;;26.95;33.56
59240;BME280;45010;53.640;10.578;2023-06-14T04:25:16;101368.00;;;26.85;33.76
59240;BME280;45010;53.640;10.578;2023-06-14T04:28:17;101382.69;;;26.94;33.57
59240;BME280;45010;53.640;10.578;2023-06-14T04:31:18;101386.41;;;26.93;34.10
59240;BME280;45010;53.640;10.578;2023-06-14T04:34:19;101376.59;;;26.87;33.74
59240;BME280;45010;53.640;10.578;2023-06-14T04:37:22;101392.81;;;26.92;34.21
59240;BME280;45010;53.640;10.578;2023-06-14T04:40:23;101386.88;;;26.90;33.96
59240;BME280;45010;53.640;10.578;2023-06-14T04:43:23;101393.88;;;26.91;34.24
59240;BME280;45010;53.640;10.578;2023-06-14T04:46:26;101389.53;;;26.90;34.29
59240;BME280;45010;53.640;10.578;2023-06-14T04:49:28;101392.22;;;26.90;34.25
59240;BME280;45010;53.640;10.578;2023-06-14T04:52:32;101392.22;;;26.90;34.46
59240;BME280;45010;53.640;10.578;2023-06-14T04:55:33;101389.78;;;26.89;34.15
59240;BME280;45010;53.640;10.578;2023-06-14T04:58:33;101400.47;;;26.89;34.48
59240;BME280;45010;53.640;10.578;2023-06-14T05:01:33;101386.75;;;26.85;34.77
59240;BME280;45010;53.640;10.578;2023-06-14T05:04:34;101396.75;;;26.90;34.41
59240;BME280;45010;53.640;10.578;2023-06-14T05:07:34;101390.56;;;26.89;34.40
59240;BME280;45010;53.640;10.578;2023-06-14T05:10:35;101386.25;;;26.88;34.50
59240;BME280;45010;53.640;10.578;2023-06-14T05:13:36;101393.50;;;26.88;34.81
59240;BME280;45010;53.640;10.578;2023-06-14T05:16:36;101387.31;;;26.87;34.54
59240;BME280;45010;53.640;10.578;2023-06-14T05:19:37;101392.66;;;26.87;34.62
59240;BME280;45010;53.640;10.578;2023-06-14T05:22:37;101403.38;;;26.87;34.59
59240;BME280;45010;53.640;10.578;2023-06-14T05:25:37;101406.88;;;26.88;35.07
59240;BME280;45010;53.640;10.578;2023-06-14T05:28:37;101404.19;;;26.88;35.14
59240;BME280;45010;53.640;10.578;2023-06-14T05:31:38;101403.38;;;26.87;35.00
59240;BME280;45010;53.640;10.578;2023-06-14T05:34:38;101408.72;;;26.87;34.84
59240;BME280;45010;53.640;10.578;2023-06-14T05:37:38;101414.06;;;26.87;34.86
59240;BME280;45010;53.640;10.578;2023-06-14T05:40:39;101405.00;;;26.88;35.20
59240;BME280;45010;53.640;10.578;2023-06-14T05:43:39;101413.28;;;26.86;34.92
59240;BME280;45010;53.640;10.578;2023-06-14T05:46:40;101419.44;;;26.87;35.18
59240;BME280;45010;53.640;10.578;2023-06-14T05:49:41;101419.44;;;26.87;35.35
59240;BME280;45010;53.640;10.578;2023-06-14T05:52:41;101419.44;;;26.87;35.40
59240;BME280;45010;53.640;10.578;2023-06-14T05:55:41;101424.78;;;26.87;35.13
59240;BME280;45010;53.640;10.578;2023-06-14T05:58:42;101410.13;;;26.78;35.24
59240;BME280;45010;53.640;10.578;2023-06-14T06:01:42;101432.00;;;26.86;35.46
59240;BME280;45010;53.640;10.578;2023-06-14T06:04:42;101435.50;;;26.87;35.26
59240;BME280;45010;53.640;10.578;2023-06-14T06:07:43;101427.47;;;26.87;35.48
59240;BME280;45010;53.640;10.578;2023-06-14T06:10:45;101431.75;;;26.88;35.31
59240;BME280;45010;53.640;10.578;2023-06-14T06:13:45;101424.00;;;26.86;35.67
59240;BME280;45010;53.640;10.578;2023-06-14T06:16:46;101423.16;;;26.86;35.94
59240;BME280;45010;53.640;10.578;2023-06-14T06:19:46;101422.81;;;26.82;35.74
59240;BME280;45010;53.640;10.578;2023-06-14T06:22:46;101424.91;;;26.80;35.77
59240;BME280;45010;53.640;10.578;2023-06-14T06:25:47;101422.44;;;26.79;36.39
59240;BME280;45010;53.640;10.578;2023-06-14T06:28:47;101427.81;;;26.79;36.05
59240;BME280;45010;53.640;10.578;2023-06-14T06:31:48;101419.16;;;26.77;36.33
59240;BME280;45010;53.640;10.578;2023-06-14T06:34:48;101433.16;;;26.79;36.36
59240;BME280;45010;53.640;10.578;2023-06-14T06:37:48;101427.81;;;26.79;35.70
59240;BME280;45010;53.640;10.578;2023-06-14T06:40:49;101436.88;;;26.78;35.62
59240;BME280;45010;53.640;10.578;2023-06-14T06:43:49;101427.09;;;26.71;35.40
59240;BME280;45010;53.640;10.578;2023-06-14T06:46:50;101432.81;;;26.75;35.43
59240;BME280;45010;53.640;10.578;2023-06-14T06:49:50;101440.56;;;26.77;34.90
59240;BME280;45010;53.640;10.578;2023-06-14T06:52:51;101441.50;;;26.70;34.79
59240;BME280;45010;53.640;10.578;2023-06-14T06:55:51;101444.31;;;26.76;35.01
59240;BME280;45010;53.640;10.578;2023-06-14T06:58:51;101442.69;;;26.75;34.68
59240;BME280;45010;53.640;10.578;2023-06-14T07:01:52;101445.94;;;26.77;34.62
59240;BME280;45010;53.640;10.578;2023-06-14T07:04:52;101446.97;;;26.76;34.92
59240;BME280;45010;53.640;10.578;2023-06-14T07:07:52;101445.94;;;26.77;34.83
59240;BME280;45010;53.640;10.578;2023-06-14T07:10:52;101452.94;;;26.78;35.20
59240;BME280;45010;53.640;10.578;2023-06-14T07:13:53;101457.47;;;26.77;35.26
59240;BME280;45010;53.640;10.578;2023-06-14T07:16:53;101456.63;;;26.77;35.03
59240;BME280;45010;53.640;10.578;2023-06-14T07:19:53;101459.31;;;26.77;35.33
59240;BME280;45010;53.640;10.578;2023-06-14T07:22:54;101464.44;;;26.78;35.13
59240;BME280;45010;53.640;10.578;2023-06-14T07:25:54;101465.28;;;26.79;34.85
59240;BME280;45010;53.640;10.578;2023-06-14T07:28:54;101467.94;;;26.79;34.99
59240;BME280;45010;53.640;10.578;2023-06-14T07:31:55;101430.97;;;26.57;34.59
59240;BME280;45010;53.640;10.578;2023-06-14T07:34:55;101462.38;;;26.80;34.91
59240;BME280;45010;53.640;10.578;2023-06-14T07:37:55;101471.19;;;26.81;34.80
59240;BME280;45010;53.640;10.578;2023-06-14T07:40:56;101464.78;;;26.82;34.86
59240;BME280;45010;53.640;10.578;2023-06-14T07:43:56;101457.38;;;26.84;34.70
59240;BME280;45010;53.640;10.578;2023-06-14T07:46:56;101462.72;;;26.84;34.77
59240;BME280;45010;53.640;10.578;2023-06-14T07:49:59;101465.97;;;26.86;34.52
59240;BME280;45010;53.640;10.578;2023-06-14T07:52:59;101462.25;;;26.87;34.93
59240;BME280;45010;53.640;10.578;2023-06-14T07:56:00;101455.63;;;26.90;35.33
59240;BME280;45010;53.640;10.578;2023-06-14T07:59:00;101453.78;;;26.90;35.37
59240;BME280;45010;53.640;10.578;2023-06-14T08:02:00;101460.56;;;26.93;34.97
59240;BME280;45010;53.640;10.578;2023-06-14T08:05:01;101451.72;;;26.92;35.03
59240;BME280;45010;53.640;10.578;2023-06-14T08:08:02;101444.09;;;26.89;35.07
59240;BME280;45010;53.640;10.578;2023-06-14T08:11:02;101455.56;;;26.96;34.91
59240;BME280;45010;53.640;10.578;2023-06-14T08:14:02;101447.41;;;26.91;35.33
59240;BME280;45010;53.640;10.578;2023-06-14T08:17:03;101457.78;;;26.99;35.07
59240;BME280;45010;53.640;10.578;2023-06-14T08:20:04;101462.06;;;27.01;34.92
59240;BME280;45010;53.640;10.578;2023-06-14T08:23:05;101427.94;;;26.84;35.23
59240;BME280;45010;53.640;10.578;2023-06-14T08:26:06;101460.00;;;27.03;34.92
59240;BME280;45010;53.640;10.578;2023-06-14T08:29:06;101467.00;;;27.04;35.07
59240;BME280;45010;53.640;10.578;2023-06-14T08:32:07;101468.63;;;27.05;35.26
59240;BME280;45010;53.640;10.578;2023-06-14T08:35:07;101470.25;;;27.06;35.30
59240;BME280;45010;53.640;10.578;2023-06-14T08:38:10;101467.13;;;27.09;35.54
59240;BME280;45010;53.640;10.578;2023-06-14T08:41:11;101455.22;;;27.05;35.20
59240;BME280;45010;53.640;10.578;2023-06-14T08:44:16;101466.63;;;27.12;35.16
59240;BME280;45010;53.640;10.578;2023-06-14T08:47:16;101461.91;;;27.14;35.88
59240;BME280;45010;53.640;10.578;2023-06-14T08:50:20;101444.53;;;27.05;35.66
59240;BME280;45010;53.640;10.578;2023-06-14T08:53:22;101450.72;;;27.17;35.88
59240;BME280;45010;53.640;10.578;2023-06-14T08:56:25;101431.97;;;27.05;35.99
59240;BME280;45010;53.640;10.578;2023-06-14T08:59:26;101437.78;;;27.14;35.69
59240;BME280;45010;53.640;10.578;2023-06-14T09:02:27;101453.72;;;27.21;35.99
59240;BME280;45010;53.640;10.578;2023-06-14T09:05:27;101451.88;;;27.21;35.51
59240;BME280;45010;53.640;10.578;2023-06-14T09:08:28;101458.88;;;27.22;35.52
59240;BME280;45010;53.640;10.578;2023-06-14T09:11:30;101446.97;;;27.18;35.54
59240;BME280;45010;53.640;10.578;2023-06-14T09:14:31;101462.94;;;27.25;35.91
59240;BME280;45010;53.640;10.578;2023-06-14T09:17:41;101452.44;;;27.23;35.43
59240;BME280;45010;53.640;10.578;2023-06-14T09:20:41;101463.28;;;27.29;35.22
59240;BME280;45010;53.640;10.578;2023-06-14T09:23:46;101448.72;;;27.24;35.30
59240;BME280;45010;53.640;10.578;2023-06-14T09:26:47;101453.84;;;27.26;35.56
59240;BME280;45010;53.640;10.578;2023-06-14T09:29:47;101459.91;;;27.33;35.70
59240;BME280;45010;53.640;10.578;2023-06-14T09:32:48;101464.47;;;27.33;35.27
59240;BME280;45010;53.640;10.578;2023-06-14T09:35:51;101448.84;;;27.30;35.63
59240;BME280;45010;53.640;10.578;2023-06-14T09:39:01;101460.25;;;27.37;35.42
59240;BME280;45010;53.640;10.578;2023-06-14T09:42:17;101452.22;;;27.37;35.30
59240;BME280;45010;53.640;10.578;2023-06-14T09:45:18;101445.00;;;27.37;35.19
59240;BME280;45010;53.640;10.578;2023-06-14T09:48:21;101448.53;;;27.38;35.08
59240;BME280;45010;53.640;10.578;2023-06-14T09:51:23;101413.91;;;27.24;35.56
59240;BME280;45010;53.640;10.578;2023-06-14T09:54:24;101443.75;;;27.40;35.70
59240;BME280;45010;53.640;10.578;2023-06-14T09:57:27;101440.00;;;27.41;35.18
59240;BME280;45010;53.640;10.578;2023-06-14T10:00:30;101437.09;;;27.43;35.27
59240;BME280;45010;53.640;10.578;2023-06-14T10:03:34;101443.25;;;27.43;35.50
59240;BME280;45010;53.640;10.578;2023-06-14T10:06:36;101432.53;;;27.43;35.55
59240;BME280;45010;53.640;10.578;2023-06-14T10:09:37;101439.31;;;27.46;35.54
59240;BME280;45010;53.640;10.578;2023-06-14T10:12:39;101411.97;;;27.32;35.28
59240;BME280;45010;53.640;10.578;2023-06-14T10:15:55;101439.06;;;27.47;35.07
59240;BME280;45010;53.640;10.578;2023-06-14T10:19:04;101407.41;;;27.32;35.53
59240;BME280;45010;53.640;10.578;2023-06-14T10:22:12;101431.59;;;27.49;35.25
59240;BME280;45010;53.640;10.578;2023-06-14T10:25:26;101430.47;;;27.45;35.59
59240;BME280;45010;53.640;10.578;2023-06-14T10:28:26;101429.53;;;27.51;35.70
59240;BME280;45010;53.640;10.578;2023-06-14T10:31:43;101435.47;;;27.53;35.85
59240;BME280;45010;53.640;10.578;2023-06-14T10:34:44;101423.69;;;27.55;35.86
59240;BME280;45010;53.640;10.578;2023-06-14T10:37:46;101429.88;;;27.55;35.96
59240;BME280;45010;53.640;10.578;2023-06-14T10:40:52;101421.59;;;27.57;35.86
59240;BME280;45010;53.640;10.578;2023-06-14T10:43:52;101424.88;;;27.59;35.61
59240;BME280;45010;53.640;10.578;2023-06-14T10:46:54;101417.75;;;27.52;35.75
59240;BME280;45010;53.640;10.578;2023-06-14T10:49:55;101419.53;;;27.59;35.34
59240;BME280;45010;53.640;10.578;2023-06-14T10:52:55;101417.91;;;27.58;35.53
59240;BME280;45010;53.640;10.578;2023-06-14T10:55:56;101412.53;;;27.58;36.00
59240;BME280;45010;53.640;10.578;2023-06-14T10:58:57;101414.16;;;27.59;36.09
59240;BME280;45010;53.640;10.578;2023-06-14T11:05:28;101392.03;;;27.51;36.15
59240;BME280;45010;53.640;10.578;2023-06-14T11:12:10;101411.03;;;27.62;35.84
59240;BME280;45010;53.640;10.578;2023-06-14T11:15:12;101413.72;;;27.62;36.25
59240;BME280;45010;53.640;10.578;2023-06-14T11:18:13;101412.41;;;27.64;36.32
59240;BME280;45010;53.640;10.578;2023-06-14T11:21:17;101413.72;;;27.62;36.40
59240;BME280;45010;53.640;10.578;2023-06-14T11:24:20;101401.69;;;27.64;36.36
59240;BME280;45010;53.640;10.578;2023-06-14T11:27:21;101404.13;;;27.66;35.92
59240;BME280;45010;53.640;10.578;2023-06-14T11:30:21;101386.91;;;27.62;36.29
59240;BME280;45010;53.640;10.578;2023-06-14T11:33:22;101387.00;;;27.67;35.89
59240;BME280;45010;53.640;10.578;2023-06-14T11:36:33;101396.69;;;27.68;36.12
59240;BME280;45010;53.640;10.578;2023-06-14T11:39:33;101396.69;;;27.68;35.57
59240;BME280;45010;53.640;10.578;2023-06-14T11:42:34;101396.69;;;27.68;35.96
59240;BME280;45010;53.640;10.578;2023-06-14T11:45:34;101391.34;;;27.68;35.81
59240;BME280;45010;53.640;10.578;2023-06-14T11:48:42;101389.22;;;27.70;36.05
59240;BME280;45010;53.640;10.578;2023-06-14T11:51:42;101385.50;;;27.71;35.57
59240;BME280;45010;53.640;10.578;2023-06-14T11:54:43;101392.47;;;27.72;35.73
59240;BME280;45010;53.640;10.578;2023-06-14T11:57:46;101380.63;;;27.68;35.81
59240;BME280;45010;53.640;10.578;2023-06-14T12:00:49;101386.66;;;27.75;35.61
59240;BME280;45010;53.640;10.578;2023-06-14T12:03:50;101379.66;;;27.74;35.61
59240;BME280;45010;53.640;10.578;2023-06-14T12:06:50;101358.69;;;27.71;35.47
59240;BME280;45010;53.640;10.578;2023-06-14T12:12:57;101369.28;;;27.78;35.40
59240;BME280;45010;53.640;10.578;2023-06-14T12:15:58;101336.00;;;27.62;35.73
59240;BME280;45010;53.640;10.578;2023-06-14T12:19:16;101370.91;;;27.79;35.79
59240;BME280;45010;53.640;10.578;2023-06-14T12:22:16;101366.34;;;27.79;35.74
59240;BME280;45010;53.640;10.578;2023-06-14T12:25:27;101355.56;;;27.74;35.41
59240;BME280;45010;53.640;10.578;2023-06-14T12:28:31;101362.63;;;27.81;35.71
59240;BME280;45010;53.640;10.578;2023-06-14T12:31:31;101374.97;;;27.82;35.24
59240;BME280;45010;53.640;10.578;2023-06-14T12:34:32;101364.25;;;27.82;35.38
59240;BME280;45010;53.640;10.578;2023-06-14T12:37:32;101357.28;;;27.81;35.41
59240;BME280;45010;53.640;10.578;2023-06-14T12:40:32;101362.63;;;27.81;35.33
59240;BME280;45010;53.640;10.578;2023-06-14T12:43:33;101351.81;;;27.75;35.03
59240;BME280;45010;53.640;10.578;2023-06-14T12:46:34;101355.06;;;27.77;35.09
59240;BME280;45010;53.640;10.578;2023-06-14T12:49:35;101368.56;;;27.83;35.11
59240;BME280;45010;53.640;10.578;2023-06-14T12:52:35;101367.50;;;27.84;35.23
59240;BME280;45010;53.640;10.578;2023-06-14T12:55:38;101367.75;;;27.82;35.14
59240;BME280;45010;53.640;10.578;2023-06-14T12:58:39;101356.13;;;27.76;35.36
59240;BME280;45010;53.640;10.578;2023-06-14T13:01:39;101368.56;;;27.83;35.45
59240;BME280;45010;53.640;10.578;2023-06-14T13:04:40;101360.53;;;27.83;35.12
59240;BME280;45010;53.640;10.578;2023-06-14T13:07:40;101358.91;;;27.82;35.27
59240;BME280;45010;53.640;10.578;2023-06-14T13:10:41;101365.88;;;27.83;34.86
59240;BME280;45010;53.640;10.578;2023-06-14T13:13:41;101358.91;;;27.82;34.99
59240;BME280;45010;53.640;10.578;2023-06-14T13:16:42;101364.25;;;27.82;35.21
59240;BME280;45010;53.640;10.578;2023-06-14T13:19:42;101357.28;;;27.81;35.13
59240;BME280;45010;53.640;10.578;2023-06-14T13:22:42;101364.25;;;27.82;35.67
59240;BME280;45010;53.640;10.578;2023-06-14T13:25:43;101353.53;;;27.82;36.45
59240;BME280;45010;53.640;10.578;2023-06-14T13:28:44;101321.88;;;27.66;36.78
59240;BME280;45010;53.640;10.578;2023-06-14T13:31:44;101353.06;;;27.85;36.84
59240;BME280;45010;53.640;10.578;2023-06-14T13:34:45;101354.66;;;27.86;36.47
59240;BME280;45010;53.640;10.578;2023-06-14T13:37:45;101348.50;;;27.85;36.86
59240;BME280;45010;53.640;10.578;2023-06-14T13:40:45;101342.91;;;27.87;36.66
59240;BME280;45010;53.640;10.578;2023-06-14T13:43:46;101339.53;;;27.79;36.90
59240;BME280;45010;53.640;10.578;2023-06-14T13:46:46;101346.56;;;27.81;36.80
59240;BME280;45010;53.640;10.578;2023-06-14T13:49:47;101358.50;;;27.90;36.29
59240;BME280;45010;53.640;10.578;2023-06-14T13:52:47;101354.78;;;27.91;37.00
59240;BME280;45010;53.640;10.578;2023-06-14T13:55:48;101353.16;;;27.90;36.95
59240;BME280;45010;53.640;10.578;2023-06-14T13:58:48;101348.38;;;27.92;36.98
59240;BME280;45010;53.640;10.578;2023-06-14T14:01:49;101348.38;;;27.92;36.65
59240;BME280;45010;53.640;10.578;2023-06-14T14:04:49;101343.03;;;27.92;36.54
59240;BME280;45010;53.640;10.578;2023-06-14T14:07:53;101345.44;;;27.93;36.37
59240;BME280;45010;53.640;10.578;2023-06-14T14:10:54;101338.00;;;27.96;36.33
59240;BME280;45010;53.640;10.578;2023-06-14T14:13:56;101339.84;;;27.95;36.10
59240;BME280;45010;53.640;10.578;2023-06-14T14:16:58;101337.16;;;27.95;36.24
59240;BME280;45010;53.640;10.578;2023-06-14T14:19:58;101316.69;;;27.89;36.27
59240;BME280;45010;53.640;10.578;2023-06-14T14:22:59;101332.03;;;27.93;36.25
59240;BME280;45010;53.640;10.578;2023-06-14T14:25:59;101336.34;;;27.95;36.59
59240;BME280;45010;53.640;10.578;2023-06-14T14:29:03;101333.44;;;27.96;36.29
59240;BME280;45010;53.640;10.578;2023-06-14T14:32:04;101331.34;;;27.98;36.21
59240;BME280;45010;53.640;10.578;2023-06-14T14:35:05;101343.69;;;27.99;36.30
59240;BME280;45010;53.640;10.578;2023-06-14T14:38:06;101339.94;;;28.00;36.57
59240;BME280;45010;53.640;10.578;2023-06-14T14:41:06;101338.88;;;28.01;36.17
59240;BME280;45010;53.640;10.578;2023-06-14T14:44:06;101344.81;;;28.03;36.02
59240;BME280;45010;53.640;10.578;2023-06-14T14:47:07;101347.50;;;28.03;36.21
59240;BME280;45010;53.640;10.578;2023-06-14T14:50:07;101345.31;;;28.00;36.16
59240;BME280;45010;53.640;10.578;2023-06-14T14:53:09;101346.94;;;28.01;36.09
59240;BME280;45010;53.640;10.578;2023-06-14T14:56:09;101359.28;;;28.02;35.83
59240;BME280;45010;53.640;10.578;2023-06-14T14:59:09;101351.47;;;28.01;35.93
59240;BME280;45010;53.640;10.578;2023-06-14T15:02:10;101354.97;;;28.01;36.01
59240;BME280;45010;53.640;10.578;2023-06-14T15:05:10;101349.06;;;27.99;35.79
59240;BME280;45010;53.640;10.578;2023-06-14T15:08:10;101354.41;;;27.99;35.54
59240;BME280;45010;53.640;10.578;2023-06-14T15:11:11;101324.63;;;27.84;35.42
59240;BME280;45010;53.640;10.578;2023-06-14T15:14:12;101349.06;;;27.99;35.43
59240;BME280;45010;53.640;10.578;2023-06-14T15:17:12;101343.69;;;27.99;35.65
59240;BME280;45010;53.640;10.578;2023-06-14T15:20:12;101347.44;;;27.98;35.65
59240;BME280;45010;53.640;10.578;2023-06-14T15:23:13;101343.69;;;27.99;35.75
59240;BME280;45010;53.640;10.578;2023-06-14T15:26:20;101340.91;;;27.94;35.30
59240;BME280;45010;53.640;10.578;2023-06-14T15:29:20;101343.69;;;27.99;35.44
59240;BME280;45010;53.640;10.578;2023-06-14T15:32:21;101342.06;;;27.98;35.24
59240;BME280;45010;53.640;10.578;2023-06-14T15:35:21;101348.22;;;27.99;35.51
59240;BME280;45010;53.640;10.578;2023-06-14T15:38:22;101321.38;;;27.82;35.29
59240;BME280;45010;53.640;10.578;2023-06-14T15:41:22;101340.41;;;27.97;35.45
59240;BME280;45010;53.640;10.578;2023-06-14T15:44:23;101338.78;;;27.96;35.34
59240;BME280;45010;53.640;10.578;2023-06-14T15:47:23;101342.53;;;27.95;35.20